sensor_id;sensor_type;location;lat;lon;timestamp;pressure;altitude;pressure_sealevel;temperature;humidity
21960;BME280;11144;43.030;25.108;2023-02-13T00:01:03;101208.13;;;1.06;100.00
21960;BME280;11144;43.030;25.108;2023-02-13T00:02:36;101215.88;;;1.04;100.00
21960;BME280;11144;43.030;25.108;2023-02-13T00:04:11;101218.44;;;1.03;100.00
21960;BME280;11144;43.030;25.108;2023-02-13T00:05:46;101204.56;;;1.04;100.00
21960;BME280;11144;43.030;25.108;2023-02-13T00:07:19;101204.28;;;0.95;100.00
21960;BME280;11144;43.030;25.108;2023-02-13T00:08:53;101211.25;;;0.96;100.00
21960;BME280;11144;43.030;25.108;2023-02-13T00:10:26;101211.03;;;0.90;100.00
21960;BME280;11144;43.030;25.108;2023-02-13T00:12:00;101212.63;;;0.85;100.00
21960;BME280;11144;43.030;25.108;2023-02-13T00:13:33;101217.63;;;0.79;100.00
21960;BME280;11144;43.030;25.108;2023-02-13T00:15:07;101208.00;;;0.76;100.00
21960;BME280;11144;43.030;25.108;2023-02-13T00:16:41;101214.09;;;0.77;100.00
21960;BME280;11144;43.030;25.108;2023-02-13T00:18:14;101210.53;;;0.75;100.00
21960;BME280;11144;43.030;25.108;2023-02-13T00:19:48;101198.25;;;0.71;100.00
21960;BME280;11144;43.030;25.108;2023-02-13T00:21:22;101210.34;;;0.69;100.00
21960;BME280;11144;43.030;25.108;2023-02-13T00:22:57;101200.75;;;0.68;100.00
21960;BME280;11144;43.030;25.108;2023-02-13T00:24:30;101199.00;;;0.67;100.00
21960;BME280;11144;43.030;25.108;2023-02-13T00:26:05;101199.88;;;0.67;100.00
21960;BME280;11144;43.030;25.108;2023-02-13T00:27:39;101211.09;;;0.65;100.00
21960;BME280;11144;43.030;25.108;2023-02-13T00:29:12;101206.69;;;0.64;100.00
21960;BME280;11144;43.030;25.108;2023-02-13T00:30:45;101207.59;;;0.64;100.00
21960;BME280;11144;43.030;25.108;2023-02-13T00:32:17;101215.34;;;0.63;100.00
21960;BME280;11144;43.030;25.108;2023-02-13T00:33:50;101199.63;;;0.60;100.00
21960;BME280;11144;43.030;25.108;2023-02-13T00:35:25;101199.50;;;0.57;100.00
21960;BME280;11144;43.030;25.108;2023-02-13T00:36:58;101209.84;;;0.54;100.00
21960;BME280;11144;43.030;25.108;2023-02-13T00:38:31;101206.41;;;0.55;100.00
21960;BME280;11144;43.030;25.108;2023-02-13T00:40:05;101211.59;;;0.55;100.00
21960;BME280;11144;43.030;25.108;2023-02-13T00:41:38;101215.91;;;0.54;100.00
21960;BME280;11144;43.030;25.108;2023-02-13T00:43:12;101218.44;;;0.53;100.00
21960;BME280;11144;43.030;25.108;2023-02-13T00:44:44;101217.59;;;0.52;100.00
21960;BME280;11144;43.030;25.108;2023-02-13T00:46:18;101209.72;;;0.51;100.00
21960;BME280;11144;43.030;25.108;2023-02-13T00:47:51;101211.31;;;0.47;100.00
21960;BME280;11144;43.030;25.108;2023-02-13T00:49:24;101218.25;;;0.47;100.00
21960;BME280;11144;43.030;25.108;2023-02-13T00:50:59;101223.34;;;0.44;100.00
21960;BME280;11144;43.030;25.108;2023-02-13T00:52:34;101215.44;;;0.41;100.00
21960;BME280;11144;43.030;25.108;2023-02-13T00:54:07;101223.13;;;0.38;100.00
21960;BME280;11144;43.030;25.108;2023-02-13T00:55:41;101209.19;;;0.36;100.00
21960;BME280;11144;43.030;25.108;2023-02-13T00:57:14;101216.09;;;0.35;100.00
21960;BME280;11144;43.030;25.108;2023-02-13T00:58:48;101209.06;;;0.33;100.00
21960;BME280;11144;43.030;25.108;2023-02-13T01:00:21;101206.97;;;0.23;100.00
21960;BME280;11144;43.030;25.108;2023-02-13T01:01:54;101219.59;;;0.12;100.00
21960;BME280;11144;43.030;25.108;2023-02-13T01:03:28;101219.31;;;0.04;100.00
21960;BME280;11144;43.030;25.108;2023-02-13T01:05:03;101212.94;;;-0.04;100.00
21960;BME280;11144;43.030;25.108;2023-02-13T01:06:37;101217.81;;;-0.13;100.00
21960;BME280;11144;43.030;25.108;2023-02-13T01:08:12;101219.34;;;-0.18;100.00
21960;BME280;11144;43.030;25.108;2023-02-13T01:09:45;101225.31;;;-0.20;100.00
21960;BME280;11144;43.030;25.108;2023-02-13T01:11:18;101213.03;;;-0.24;100.00
21960;BME280;11144;43.030;25.108;2023-02-13T01:12:51;101214.75;;;-0.25;100.00
21960;BME280;11144;43.030;25.108;2023-02-13T01:14:24;101218.19;;;-0.26;100.00
21960;BME280;11144;43.030;25.108;2023-02-13T01:15:57;101220.78;;;-0.26;100.00
21960;BME280;11144;43.030;25.108;2023-02-13T01:17:30;101232.66;;;-0.32;100.00
21960;BME280;11144;43.030;25.108;2023-02-13T01:19:03;101227.41;;;-0.34;100.00
21960;BME280;11144;43.030;25.108;2023-02-13T01:20:37;101228.25;;;-0.35;100.00
21960;BME280;11144;43.030;25.108;2023-02-13T01:22:11;101234.25;;;-0.36;100.00
21960;BME280;11144;43.030;25.108;2023-02-13T01:23:45;101230.84;;;-0.35;100.00
21960;BME280;11144;43.030;25.108;2023-02-13T01:25:19;101246.38;;;-0.36;100.00
21960;BME280;11144;43.030;25.108;2023-02-13T01:26:53;101236.03;;;-0.35;100.00
21960;BME280;11144;43.030;25.108;2023-02-13T01:28:27;101231.66;;;-0.36;100.00
21960;BME280;11144;43.030;25.108;2023-02-13T01:30:00;101228.25;;;-0.35;100.00
21960;BME280;11144;43.030;25.108;2023-02-13T01:31:33;101219.31;;;-0.41;100.00
21960;BME280;11144;43.030;25.108;2023-02-13T01:33:09;101237.84;;;-0.32;100.00
21960;BME280;11144;43.030;25.108;2023-02-13T01:34:41;101232.59;;;-0.34;100.00
21960;BME280;11144;43.030;25.108;2023-02-13T01:36:15;101225.66;;;-0.35;100.00
21960;BME280;11144;43.030;25.108;2023-02-13T01:37:49;101232.53;;;-0.35;100.00
21960;BME280;11144;43.030;25.108;2023-02-13T01:39:23;101221.84;;;-0.43;100.00
21960;BME280;11144;43.030;25.108;2023-02-13T01:40:56;101239.44;;;-0.36;100.00
21960;BME280;11144;43.030;25.108;2023-02-13T01:42:32;101235.13;;;-0.35;100.00
21960;BME280;11144;43.030;25.108;2023-02-13T01:46:12;101232.28;;;-0.41;100.00
21960;BME280;11144;43.030;25.108;2023-02-13T01:47:48;101230.47;;;-0.44;100.00
21960;BME280;11144;43.030;25.108;2023-02-13T01:49:24;101233.91;;;-0.45;100.00
21960;BME280;11144;43.030;25.108;2023-02-13T01:51:00;101230.34;;;-0.47;100.00
21960;BME280;11144;43.030;25.108;2023-02-13T01:52:35;101228.47;;;-0.51;100.00
21960;BME280;11144;43.030;25.108;2023-02-13T01:54:14;101230.00;;;-0.56;100.00
21960;BME280;11144;43.030;25.108;2023-02-13T01:55:54;101230.00;;;-0.56;100.00
21960;BME280;11144;43.030;25.108;2023-02-13T01:57:30;101229.03;;;-0.58;100.00
21960;BME280;11144;43.030;25.108;2023-02-13T01:59:09;101229.88;;;-0.59;100.00
21960;BME280;11144;43.030;25.108;2023-02-13T02:00:44;101224.56;;;-0.62;100.00
21960;BME280;11144;43.030;25.108;2023-02-13T02:02:20;101228.00;;;-0.63;100.00
21960;BME280;11144;43.030;25.108;2023-02-13T02:03:57;101239.22;;;-0.64;100.00
21960;BME280;11144;43.030;25.108;2023-02-13T02:05:36;101226.22;;;-0.64;100.00
21960;BME280;11144;43.030;25.108;2023-02-13T02:07:10;101218.44;;;-0.64;100.00
21960;BME280;11144;43.030;25.108;2023-02-13T02:08:47;101230.34;;;-0.69;100.00
21960;BME280;11144;43.030;25.108;2023-02-13T02:10:25;101225.84;;;-0.73;100.00
21960;BME280;11144;43.030;25.108;2023-02-13T02:12:03;101227.53;;;-0.75;100.00
21960;BME280;11144;43.030;25.108;2023-02-13T02:13:40;101232.44;;;-0.81;100.00
21960;BME280;11144;43.030;25.108;2023-02-13T02:15:14;101230.69;;;-0.82;100.00
21960;BME280;11144;43.030;25.108;2023-02-13T02:16:47;101234.22;;;-0.80;100.00
21960;BME280;11144;43.030;25.108;2023-02-13T02:18:22;101232.31;;;-0.84;100.00
21960;BME280;11144;43.030;25.108;2023-02-13T02:20:03;101232.75;;;-0.95;100.00
21960;BME280;11144;43.030;25.108;2023-02-13T02:26:13;101229.59;;;-1.09;100.00
21960;BME280;11144;43.030;25.108;2023-02-13T02:28:26;101235.44;;;-1.13;100.00
21960;BME280;11144;43.030;25.108;2023-02-13T02:32:40;101239.69;;;-1.15;100.00
21960;BME280;11144;43.030;25.108;2023-02-13T02:34:22;101238.72;;;-1.17;100.00
21960;BME280;11144;43.030;25.108;2023-02-13T02:36:09;101241.25;;;-1.18;100.00
21960;BME280;11144;43.030;25.108;2023-02-13T02:38:02;101234.25;;;-1.21;100.00
21960;BME280;11144;43.030;25.108;2023-02-13T02:39:46;101244.75;;;-1.18;100.00
21960;BME280;11144;43.030;25.108;2023-02-13T02:41:30;101246.53;;;-1.17;100.00
21960;BME280;11144;43.030;25.108;2023-02-13T02:43:29;101237.94;;;-1.16;100.00
21960;BME280;11144;43.030;25.108;2023-02-13T02:45:13;101234.00;;;-1.27;100.00
21960;BME280;11144;43.030;25.108;2023-02-13T02:46:57;101248.41;;;-1.33;100.00
21960;BME280;11144;43.030;25.108;2023-02-13T02:49:10;101241.59;;;-1.31;100.00
21960;BME280;11144;43.030;25.108;2023-02-13T02:51:09;101241.53;;;-1.33;100.00
21960;BME280;11144;43.030;25.108;2023-02-13T02:52:56;101239.63;;;-1.37;100.00
21960;BME280;11144;43.030;25.108;2023-02-13T02:54:35;101242.16;;;-1.38;100.00
21960;BME280;11144;43.030;25.108;2023-02-13T02:56:36;101238.66;;;-1.39;100.00
21960;BME280;11144;43.030;25.108;2023-02-13T02:58:16;101224.34;;;-1.50;100.00
21960;BME280;11144;43.030;25.108;2023-02-13T03:00:09;101217.53;;;-1.48;100.00
21960;BME280;11144;43.030;25.108;2023-02-13T03:02:04;101226.53;;;-1.40;100.00
21960;BME280;11144;43.030;25.108;2023-02-13T03:04:11;101229.25;;;-1.37;100.00
21960;BME280;11144;43.030;25.108;2023-02-13T03:06:12;101230.09;;;-1.38;100.00
21960;BME280;11144;43.030;25.108;2023-02-13T03:07:48;101217.41;;;-1.51;100.00
21960;BME280;11144;43.030;25.108;2023-02-13T03:09:26;101230.09;;;-1.38;100.00
21960;BME280;11144;43.030;25.108;2023-02-13T03:11:18;101219.72;;;-1.38;100.00
21960;BME280;11144;43.030;25.108;2023-02-13T03:13:13;101226.66;;;-1.37;100.00
21960;BME280;11144;43.030;25.108;2023-02-13T03:14:53;101223.09;;;-1.39;100.00
21960;BME280;11144;43.030;25.108;2023-02-13T03:16:26;101226.66;;;-1.37;100.00
21960;BME280;11144;43.030;25.108;2023-02-13T03:18:16;101209.34;;;-1.38;100.00
21960;BME280;11144;43.030;25.108;2023-02-13T03:20:14;101196.78;;;-1.48;100.00
21960;BME280;11144;43.030;25.108;2023-02-13T03:22:11;101211.78;;;-1.41;100.00
21960;BME280;11144;43.030;25.108;2023-02-13T03:23:58;101224.63;;;-1.44;100.00
21960;BME280;11144;43.030;25.108;2023-02-13T03:25:46;101207.31;;;-1.45;100.00
21960;BME280;11144;43.030;25.108;2023-02-13T03:27:33;101214.13;;;-1.47;100.00
21960;BME280;11144;43.030;25.108;2023-02-13T03:29:36;101219.44;;;-1.44;100.00
21960;BME280;11144;43.030;25.108;2023-02-13T03:31:33;101215.88;;;-1.46;100.00
21960;BME280;11144;43.030;25.108;2023-02-13T03:33:22;101220.13;;;-1.48;100.00
21960;BME280;11144;43.030;25.108;2023-02-13T03:35:11;101220.97;;;-1.49;100.00
21960;BME280;11144;43.030;25.108;2023-02-13T03:37:09;101216.47;;;-1.53;100.00
21960;BME280;11144;43.030;25.108;2023-02-13T03:39:07;101215.38;;;-1.58;100.00
21960;BME280;11144;43.030;25.108;2023-02-13T03:40:45;101216.88;;;-1.63;100.00
21960;BME280;11144;43.030;25.108;2023-02-13T03:42:37;101218.13;;;-1.74;100.00
21960;BME280;11144;43.030;25.108;2023-02-13T03:44:17;101219.38;;;-1.85;100.00
21960;BME280;11144;43.030;25.108;2023-02-13T03:45:52;101208.88;;;-1.88;100.00
21960;BME280;11144;43.030;25.108;2023-02-13T03:47:25;101224.13;;;-1.94;100.00
21960;BME280;11144;43.030;25.108;2023-02-13T03:49:00;101223.75;;;-2.03;100.00
21960;BME280;11144;43.030;25.108;2023-02-13T03:50:52;101225.50;;;-2.02;100.00
21960;BME280;11144;43.030;25.108;2023-02-13T03:52:30;101221.44;;;-1.97;100.00
21960;BME280;11144;43.030;25.108;2023-02-13T03:54:10;101226.69;;;-1.95;100.00
21960;BME280;11144;43.030;25.108;2023-02-13T03:55:46;101215.44;;;-1.96;100.00
21960;BME280;11144;43.030;25.108;2023-02-13T03:57:40;101215.28;;;-1.99;100.00
21960;BME280;11144;43.030;25.108;2023-02-13T03:59:34;101217.81;;;-2.00;100.00
21960;BME280;11144;43.030;25.108;2023-02-13T04:01:11;101213.53;;;-2.00;100.00
21960;BME280;11144;43.030;25.108;2023-02-13T04:02:53;101223.88;;;-2.00;100.00
21960;BME280;11144;43.030;25.108;2023-02-13T04:04:36;101224.03;;;-1.97;100.00
21960;BME280;11144;43.030;25.108;2023-02-13T04:06:15;101219.56;;;-1.99;100.00
21960;BME280;11144;43.030;25.108;2023-02-13T04:07:50;101222.22;;;-1.98;100.00
21960;BME280;11144;43.030;25.108;2023-02-13T04:09:23;101225.50;;;-2.02;100.00
21960;BME280;11144;43.030;25.108;2023-02-13T04:11:03;101233.81;;;-2.09;100.00
21960;BME280;11144;43.030;25.108;2023-02-13T04:12:47;101227.63;;;-2.12;100.00
21960;BME280;11144;43.030;25.108;2023-02-13T04:14:25;101222.50;;;-2.30;100.00
21960;BME280;11144;43.030;25.108;2023-02-13T04:16:05;101236.34;;;-2.10;100.00
21960;BME280;11144;43.030;25.108;2023-02-13T04:17:47;101235.63;;;-2.08;100.00
21960;BME280;11144;43.030;25.108;2023-02-13T04:19:24;101233.03;;;-2.08;100.00
21960;BME280;11144;43.030;25.108;2023-02-13T04:21:01;101234.94;;;-2.04;100.00
21960;BME280;11144;43.030;25.108;2023-02-13T04:22:41;101243.63;;;-2.02;100.00
21960;BME280;11144;43.030;25.108;2023-02-13T04:24:15;101234.78;;;-2.07;100.00
21960;BME280;11144;43.030;25.108;2023-02-13T04:25:50;101237.66;;;-2.01;100.00
21960;BME280;11144;43.030;25.108;2023-02-13T04:27:25;101234.09;;;-2.03;100.00
21960;BME280;11144;43.030;25.108;2023-02-13T04:28:59;101233.97;;;-2.06;100.00
21960;BME280;11144;43.030;25.108;2023-02-13T04:30:32;101227.91;;;-2.06;100.00
21960;BME280;11144;43.030;25.108;2023-02-13T04:32:05;101241.81;;;-2.04;100.00
21960;BME280;11144;43.030;25.108;2023-02-13T04:33:38;101242.56;;;-2.07;100.00
21960;BME280;11144;43.030;25.108;2023-02-13T04:35:12;101244.31;;;-2.06;100.00
21960;BME280;11144;43.030;25.108;2023-02-13T04:36:45;101250.31;;;-2.07;100.00
21960;BME280;11144;43.030;25.108;2023-02-13T04:38:18;101246.16;;;-2.03;100.00
21960;BME280;11144;43.030;25.108;2023-02-13T04:39:53;101241.03;;;-2.02;100.00
21960;BME280;11144;43.030;25.108;2023-02-13T04:41:26;101250.31;;;-2.07;100.00
21960;BME280;11144;43.030;25.108;2023-02-13T04:42:58;101252.78;;;-2.10;100.00
21960;BME280;11144;43.030;25.108;2023-02-13T04:44:32;101246.38;;;-2.18;100.00
21960;BME280;11144;43.030;25.108;2023-02-13T04:46:05;101241.78;;;-2.23;100.00
21960;BME280;11144;43.030;25.108;2023-02-13T04:47:38;101241.56;;;-2.28;100.00
21960;BME280;11144;43.030;25.108;2023-02-13T04:49:11;101235.59;;;-2.27;100.00
21960;BME280;11144;43.030;25.108;2023-02-13T04:50:45;101239.81;;;-2.29;100.00
21960;BME280;11144;43.030;25.108;2023-02-13T04:52:18;101238.66;;;-2.35;100.00
21960;BME280;11144;43.030;25.108;2023-02-13T04:53:52;101237.34;;;-2.45;100.00
21960;BME280;11144;43.030;25.108;2023-02-13T04:55:27;101234.31;;;-2.54;100.00
21960;BME280;11144;43.030;25.108;2023-02-13T04:57:00;101238.25;;;-2.62;100.00
21960;BME280;11144;43.030;25.108;2023-02-13T04:58:32;101238.34;;;-2.78;100.00
21960;BME280;11144;43.030;25.108;2023-02-13T05:00:07;101235.31;;;-2.87;100.00
21960;BME280;11144;43.030;25.108;2023-02-13T05:01:39;101241.00;;;-2.94;100.00
21960;BME280;11144;43.030;25.108;2023-02-13T05:03:12;101235.72;;;-2.95;100.00
21960;BME280;11144;43.030;25.108;2023-02-13T05:04:46;101243.72;;;-2.91;100.00
21960;BME280;11144;43.030;25.108;2023-02-13T05:06:18;101237.97;;;-2.85;100.00
21960;BME280;11144;43.030;25.108;2023-02-13T05:07:51;101247.41;;;-2.86;100.00
21960;BME280;11144;43.030;25.108;2023-02-13T05:09:24;101250.97;;;-2.84;100.00
21960;BME280;11144;43.030;25.108;2023-02-13T05:10:59;101252.91;;;-2.80;100.00
21960;BME280;11144;43.030;25.108;2023-02-13T05:12:33;101258.22;;;-2.77;100.00
21960;BME280;11144;43.030;25.108;2023-02-13T05:14:06;101245.97;;;-2.81;100.00
21960;BME280;11144;43.030;25.108;2023-02-13T05:15:39;101261.75;;;-2.75;100.00
21960;BME280;11144;43.030;25.108;2023-02-13T05:17:13;101261.03;;;-2.72;100.00
21960;BME280;11144;43.030;25.108;2023-02-13T05:18:46;101255.13;;;-2.70;100.00
21960;BME280;11144;43.030;25.108;2023-02-13T05:20:19;101264.88;;;-2.64;100.00
21960;BME280;11144;43.030;25.108;2023-02-13T05:21:52;101264.13;;;-2.62;100.00
21960;BME280;11144;43.030;25.108;2023-02-13T05:23:51;101274.63;;;-2.59;100.00
21960;BME280;11144;43.030;25.108;2023-02-13T05:25:24;101272.97;;;-2.57;100.00
21960;BME280;11144;43.030;25.108;2023-02-13T05:26:58;101273.13;;;-2.54;100.00
21960;BME280;11144;43.030;25.108;2023-02-13T05:28:32;101269.72;;;-2.53;100.00
21960;BME280;11144;43.030;25.108;2023-02-13T05:30:22;101271.66;;;-2.49;100.00
21960;BME280;11144;43.030;25.108;2023-02-13T05:31:57;101269.19;;;-2.46;100.00
21960;BME280;11144;43.030;25.108;2023-02-13T05:33:31;101268.25;;;-2.48;100.00
21960;BME280;11144;43.030;25.108;2023-02-13T05:35:04;101275.06;;;-2.50;100.00
21960;BME280;11144;43.030;25.108;2023-02-13T05:36:37;101276.84;;;-2.49;100.00
21960;BME280;11144;43.030;25.108;2023-02-13T05:38:10;101279.63;;;-2.44;100.00
21960;BME280;11144;43.030;25.108;2023-02-13T05:39:43;101280.69;;;-2.41;100.00
21960;BME280;11144;43.030;25.108;2023-02-13T05:41:17;101291.19;;;-2.38;100.00
21960;BME280;11144;43.030;25.108;2023-02-13T05:42:53;101289.53;;;-2.36;100.00
21960;BME280;11144;43.030;25.108;2023-02-13T05:44:26;101274.25;;;-2.49;100.00
21960;BME280;11144;43.030;25.108;2023-02-13T05:46:03;101287.09;;;-2.33;100.00
21960;BME280;11144;43.030;25.108;2023-02-13T05:47:36;101288.03;;;-2.31;100.00
21960;BME280;11144;43.030;25.108;2023-02-13T05:49:10;101296.94;;;-2.26;100.00
21960;BME280;11144;43.030;25.108;2023-02-13T05:50:45;101295.28;;;-2.24;100.00
21960;BME280;11144;43.030;25.108;2023-02-13T05:52:18;101288.34;;;-2.25;100.00
21960;BME280;11144;43.030;25.108;2023-02-13T05:53:51;101286.56;;;-2.26;100.00
21960;BME280;11144;43.030;25.108;2023-02-13T05:55:25;101285.75;;;-2.25;100.00
21960;BME280;11144;43.030;25.108;2023-02-13T05:56:58;101289.31;;;-2.23;100.00
21960;BME280;11144;43.030;25.108;2023-02-13T05:58:33;101288.47;;;-2.22;100.00
21960;BME280;11144;43.030;25.108;2023-02-13T06:00:07;101289.66;;;-2.15;100.00
21960;BME280;11144;43.030;25.108;2023-02-13T06:01:41;101290.72;;;-2.10;100.00
21960;BME280;11144;43.030;25.108;2023-02-13T06:03:14;101296.13;;;-2.06;100.00
21960;BME280;11144;43.030;25.108;2023-02-13T06:04:46;101298.03;;;-2.02;100.00
21960;BME280;11144;43.030;25.108;2023-02-13T06:06:20;101301.88;;;-1.94;100.00
21960;BME280;11144;43.030;25.108;2023-02-13T06:07:53;101301.22;;;-1.90;100.00
21960;BME280;11144;43.030;25.108;2023-02-13T06:09:27;101300.59;;;-1.84;100.00
21960;BME280;11144;43.030;25.108;2023-02-13T06:11:00;101297.88;;;-1.87;100.00
21960;BME280;11144;43.030;25.108;2023-02-13T06:12:33;101293.84;;;-1.81;100.00
21960;BME280;11144;43.030;25.108;2023-02-13T06:14:08;101279.50;;;-1.92;100.00
21960;BME280;11144;43.030;25.108;2023-02-13T06:15:41;101318.53;;;-1.70;100.00
21960;BME280;11144;43.030;25.108;2023-02-13T06:17:13;101318.69;;;-1.67;100.00
21960;BME280;11144;43.030;25.108;2023-02-13T06:18:47;101324.06;;;-1.62;100.00
21960;BME280;11144;43.030;25.108;2023-02-13T06:20:20;101315.69;;;-1.57;100.00
21960;BME280;11144;43.030;25.108;2023-02-13T06:21:53;101313.47;;;-1.48;100.00
21960;BME280;11144;43.030;25.108;2023-02-13T06:23:27;101305.16;;;-1.41;100.00
21960;BME280;11144;43.030;25.108;2023-02-13T06:25:00;101307.13;;;-1.35;100.00
21960;BME280;11144;43.030;25.108;2023-02-13T06:26:32;101303.91;;;-1.30;100.00
21960;BME280;11144;43.030;25.108;2023-02-13T06:28:06;101285.63;;;-1.33;100.00
21960;BME280;11144;43.030;25.108;2023-02-13T06:29:41;101308.78;;;-1.17;100.00
21960;BME280;11144;43.030;25.108;2023-02-13T06:31:14;101307.44;;;-1.09;100.00
21960;BME280;11144;43.030;25.108;2023-02-13T06:32:48;101309.44;;;-1.02;100.00
21960;BME280;11144;43.030;25.108;2023-02-13T06:34:21;101301.09;;;-0.95;100.00
21960;BME280;11144;43.030;25.108;2023-02-13T06:35:55;101303.25;;;-0.85;100.00
21960;BME280;11144;43.030;25.108;2023-02-13T06:37:28;101298.06;;;-0.85;100.00
21960;BME280;11144;43.030;25.108;2023-02-13T06:39:01;101312.50;;;-0.71;100.00
21960;BME280;11144;43.030;25.108;2023-02-13T06:40:34;101309.06;;;-0.70;100.00
21960;BME280;11144;43.030;25.108;2023-02-13T06:42:07;101315.91;;;-0.72;100.00
21960;BME280;11144;43.030;25.108;2023-02-13T06:43:41;101314.50;;;-0.64;100.00
21960;BME280;11144;43.030;25.108;2023-02-13T06:45:16;101310.88;;;-0.47;100.00
21960;BME280;11144;43.030;25.108;2023-02-13T06:46:49;101303.47;;;-0.16;100.00
21960;BME280;11144;43.030;25.108;2023-02-13T06:48:22;101305.56;;;0.17;100.00
21960;BME280;11144;43.030;25.108;2023-02-13T06:49:55;101316.59;;;0.57;100.00
21960;BME280;11144;43.030;25.108;2023-02-13T06:51:28;101297.91;;;0.92;100.00
21960;BME280;11144;43.030;25.108;2023-02-13T06:53:02;101306.13;;;1.29;100.00
21960;BME280;11144;43.030;25.108;2023-02-13T06:54:35;101309.06;;;1.66;100.00
21960;BME280;11144;43.030;25.108;2023-02-13T06:56:18;101311.09;;;2.02;100.00
21960;BME280;11144;43.030;25.108;2023-02-13T06:57:52;101316.06;;;2.23;100.00
21960;BME280;11144;43.030;25.108;2023-02-13T06:59:25;101311.56;;;2.47;100.00
21960;BME280;11144;43.030;25.108;2023-02-13T07:00:59;101317.00;;;2.85;100.00
21960;BME280;11144;43.030;25.108;2023-02-13T07:02:33;101313.63;;;3.22;100.00
21960;BME280;11144;43.030;25.108;2023-02-13T07:04:06;101311.47;;;3.40;100.00
21960;BME280;11144;43.030;25.108;2023-02-13T07:05:40;101317.19;;;3.59;100.00
21960;BME280;11144;43.030;25.108;2023-02-13T07:07:13;101314.81;;;3.70;100.00
21960;BME280;11144;43.030;25.108;2023-02-13T07:08:46;101317.16;;;3.95;100.00
21960;BME280;11144;43.030;25.108;2023-02-13T07:10:22;101322.88;;;4.16;100.00
21960;BME280;11144;43.030;25.108;2023-02-13T07:11:55;101316.47;;;4.42;100.00
21960;BME280;11144;43.030;25.108;2023-02-13T07:13:28;101308.31;;;4.70;100.00
21960;BME280;11144;43.030;25.108;2023-02-13T07:15:02;101303.69;;;5.03;100.00
21960;BME280;11144;43.030;25.108;2023-02-13T07:16:37;101302.22;;;5.17;100.00
21960;BME280;11144;43.030;25.108;2023-02-13T07:18:10;101305.31;;;5.43;100.00
21960;BME280;11144;43.030;25.108;2023-02-13T07:19:43;101302.28;;;5.74;100.00
21960;BME280;11144;43.030;25.108;2023-02-13T07:21:16;101298.31;;;5.98;100.00
21960;BME280;11144;43.030;25.108;2023-02-13T07:22:50;101298.72;;;6.25;100.00
21960;BME280;11144;43.030;25.108;2023-02-13T07:24:23;101292.59;;;6.26;100.00
21960;BME280;11144;43.030;25.108;2023-02-13T07:25:58;101299.75;;;6.36;100.00
21960;BME280;11144;43.030;25.108;2023-02-13T07:27:31;101301.59;;;6.46;100.00
21960;BME280;11144;43.030;25.108;2023-02-13T07:29:04;101299.28;;;6.70;100.00
21960;BME280;11144;43.030;25.108;2023-02-13T07:30:43;101298.56;;;6.83;100.00
21960;BME280;11144;43.030;25.108;2023-02-13T07:32:17;101301.50;;;7.13;100.00
21960;BME280;11144;43.030;25.108;2023-02-13T07:33:51;101296.44;;;7.33;100.00
21960;BME280;11144;43.030;25.108;2023-02-13T07:35:24;101307.16;;;7.56;100.00
21960;BME280;11144;43.030;25.108;2023-02-13T07:36:58;101308.22;;;7.80;100.00
21960;BME280;11144;43.030;25.108;2023-02-13T07:38:31;101306.59;;;7.96;100.00
21960;BME280;11144;43.030;25.108;2023-02-13T07:40:06;101305.75;;;8.06;100.00
21960;BME280;11144;43.030;25.108;2023-02-13T07:41:40;101295.19;;;8.00;100.00
21960;BME280;11144;43.030;25.108;2023-02-13T07:43:13;101296.16;;;8.11;100.00
21960;BME280;11144;43.030;25.108;2023-02-13T07:44:47;101295.41;;;8.30;100.00
21960;BME280;11144;43.030;25.108;2023-02-13T07:46:20;101290.22;;;8.48;100.00
21960;BME280;11144;43.030;25.108;2023-02-13T07:47:55;101283.19;;;8.47;100.00
21960;BME280;11144;43.030;25.108;2023-02-13T07:49:29;101277.97;;;8.68;100.00
21960;BME280;11144;43.030;25.108;2023-02-13T07:51:04;101287.59;;;8.51;100.00
21960;BME280;11144;43.030;25.108;2023-02-13T07:52:37;101281.50;;;8.64;100.00
21960;BME280;11144;43.030;25.108;2023-02-13T07:54:11;101276.22;;;8.67;100.00
21960;BME280;11144;43.030;25.108;2023-02-13T07:55:44;101279.72;;;8.61;100.00
21960;BME280;11144;43.030;25.108;2023-02-13T07:57:17;101284.16;;;8.71;100.00
21960;BME280;11144;43.030;25.108;2023-02-13T07:58:51;101290.38;;;8.93;100.00
21960;BME280;11144;43.030;25.108;2023-02-13T08:00:24;101286.91;;;9.18;100.00
21960;BME280;11144;43.030;25.108;2023-02-13T08:01:57;101286.94;;;9.22;100.00
21960;BME280;11144;43.030;25.108;2023-02-13T08:03:32;101282.47;;;9.06;100.00
21960;BME280;11144;43.030;25.108;2023-02-13T08:05:06;101280.75;;;9.20;100.00
21960;BME280;11144;43.030;25.108;2023-02-13T08:06:40;101274.56;;;8.99;100.00
21960;BME280;11144;43.030;25.108;2023-02-13T08:08:14;101276.34;;;9.18;100.00
21960;BME280;11144;43.030;25.108;2023-02-13T08:09:47;101282.50;;;9.36;100.00
21960;BME280;11144;43.030;25.108;2023-02-13T08:11:37;101274.59;;;9.74;100.00
21960;BME280;11144;43.030;25.108;2023-02-13T08:13:26;101271.00;;;10.05;100.00
21960;BME280;11144;43.030;25.108;2023-02-13T08:15:00;101268.38;;;10.20;100.00
21960;BME280;11144;43.030;25.108;2023-02-13T08:16:33;101271.00;;;10.23;100.00
21960;BME280;11144;43.030;25.108;2023-02-13T08:18:06;101265.66;;;10.36;100.00
21960;BME280;11144;43.030;25.108;2023-02-13T08:19:41;101266.53;;;10.46;100.00
21960;BME280;11144;43.030;25.108;2023-02-13T08:21:14;101266.53;;;10.38;100.00
21960;BME280;11144;43.030;25.108;2023-02-13T08:22:47;101265.59;;;10.53;100.00
21960;BME280;11144;43.030;25.108;2023-02-13T08:24:20;101261.09;;;10.72;100.00